createdAt,value
2023-04-19T00:01:03.619Z,99.90
2023-04-19T00:03:30.263Z,99.90
2023-04-19T00:05:59.443Z,99.90
2023-04-19T00:08:25.816Z,99.90
2023-04-19T00:10:52.076Z,99.90
2023-04-19T00:13:18.216Z,99.90
2023-04-19T00:15:44.658Z,99.90
2023-04-19T00:18:10.778Z,99.90
2023-04-19T00:20:37.887Z,99.90
2023-04-19T00:23:04.017Z,99.90
2023-04-19T00:25:31.312Z,99.90
2023-04-19T00:27:57.580Z,99.90
2023-04-19T00:30:23.892Z,99.90
2023-04-19T00:32:50.042Z,99.90
2023-04-19T00:35:16.386Z,99.90
2023-04-19T00:37:42.528Z,99.90
2023-04-19T00:40:09.980Z,99.90
2023-04-19T00:42:36.262Z,99.90
2023-04-19T00:45:02.749Z,99.90
2023-04-19T00:47:29.436Z,99.90
2023-04-19T00:49:55.638Z,99.90
2023-04-19T00:52:22.087Z,99.90
2023-04-19T00:54:48.282Z,99.90
2023-04-19T00:57:15.923Z,99.90
2023-04-19T00:59:42.308Z,99.90
2023-04-19T01:02:09.278Z,99.90
2023-04-19T01:04:36.073Z,99.90
2023-04-19T01:07:02.713Z,99.90
2023-04-19T01:09:28.918Z,99.90
2023-04-19T01:11:55.209Z,99.90
2023-04-19T01:14:21.412Z,99.90
2023-04-19T01:16:47.544Z,99.90
2023-04-19T01:19:13.756Z,99.90
2023-04-19T01:21:39.890Z,99.80
2023-04-19T01:24:06.749Z,99.90
2023-04-19T01:26:32.915Z,99.90
2023-04-19T01:28:59.205Z,99.90
2023-04-19T01:31:25.648Z,99.90
2023-04-19T01:33:51.910Z,99.90
2023-04-19T01:36:18.045Z,99.90
2023-04-19T01:38:46.985Z,99.90
2023-04-19T01:41:13.334Z,99.90
2023-04-19T01:43:39.513Z,98.60
2023-04-19T01:46:05.676Z,97.70
2023-04-19T01:48:31.971Z,97.80
2023-04-19T01:50:58.202Z,96.60
2023-04-19T01:53:24.362Z,96.00
2023-04-19T01:55:50.514Z,96.30
2023-04-19T01:58:16.717Z,96.30
2023-04-19T02:00:42.948Z,96.50
2023-04-19T02:03:09.390Z,96.90
2023-04-19T02:05:37.972Z,97.40
2023-04-19T02:08:04.257Z,97.40
2023-04-19T02:10:30.417Z,96.70
2023-04-19T02:12:56.626Z,96.90
2023-04-19T02:15:22.899Z,96.10
2023-04-19T02:17:49.899Z,94.70
2023-04-19T02:20:16.368Z,95.10
2023-04-19T02:22:43.333Z,94.10
2023-04-19T02:25:09.795Z,92.70
2023-04-19T02:27:35.954Z,92.20
2023-04-19T02:30:02.306Z,92.00
2023-04-19T02:32:28.623Z,92.00
2023-04-19T02:34:54.857Z,92.20
2023-04-19T02:37:21.051Z,92.40
2023-04-19T02:39:47.267Z,92.20
2023-04-19T02:42:13.447Z,92.50
2023-04-19T02:44:39.707Z,92.10
2023-04-19T02:47:06.629Z,92.60
2023-04-19T02:49:35.792Z,91.50
2023-04-19T02:52:02.028Z,91.40
2023-04-19T02:54:28.259Z,91.30
2023-04-19T02:56:54.513Z,91.70
2023-04-19T02:59:20.699Z,91.50
2023-04-19T03:01:46.982Z,91.00
2023-04-19T03:04:13.655Z,91.00
2023-04-19T03:06:41.465Z,91.00
2023-04-19T03:09:07.703Z,91.70
2023-04-19T03:11:33.932Z,91.10
2023-04-19T03:14:00.173Z,91.40
2023-04-19T03:16:26.437Z,91.50
2023-04-19T03:18:52.740Z,92.00
2023-04-19T03:21:19.136Z,91.80
2023-04-19T03:23:45.344Z,91.60
2023-04-19T03:26:11.498Z,91.60
2023-04-19T03:28:37.731Z,92.20
2023-04-19T03:31:04.029Z,92.40
2023-04-19T03:33:30.269Z,93.50
2023-04-19T03:35:56.615Z,93.30
2023-04-19T03:38:22.844Z,93.50
2023-04-19T03:40:49.396Z,93.70
2023-04-19T03:43:15.561Z,92.70
2023-04-19T03:45:41.797Z,92.40
2023-04-19T03:48:08.152Z,92.20
2023-04-19T03:50:34.354Z,92.10
2023-04-19T03:53:00.618Z,92.10
2023-04-19T03:55:26.827Z,92.60
2023-04-19T03:57:53.049Z,92.80
2023-04-19T04:00:19.593Z,93.70
2023-04-19T04:02:45.914Z,94.50
2023-04-19T04:05:12.407Z,94.40
2023-04-19T04:07:38.818Z,94.00
2023-04-19T04:10:06.067Z,93.80
2023-04-19T04:12:32.225Z,92.60
2023-04-19T04:14:58.528Z,92.80
2023-04-19T04:17:24.946Z,92.90
2023-04-19T04:19:51.198Z,93.10
2023-04-19T04:22:17.380Z,93.30
2023-04-19T04:24:43.714Z,94.90
2023-04-19T04:27:10.146Z,99.20
2023-04-19T04:29:37.082Z,99.90
2023-04-19T04:32:10.021Z,99.90
2023-04-19T04:34:36.656Z,99.90
2023-04-19T04:37:03.129Z,99.90
2023-04-19T04:39:29.600Z,99.90
2023-04-19T04:41:57.197Z,99.90
2023-04-19T04:44:23.877Z,99.90
2023-04-19T04:46:50.135Z,99.90
2023-04-19T04:49:16.355Z,99.90
2023-04-19T04:51:42.691Z,99.90
2023-04-19T04:54:08.938Z,99.90
2023-04-19T04:56:36.661Z,99.90
2023-04-19T04:59:02.873Z,99.90
2023-04-19T05:01:29.830Z,99.90
2023-04-19T05:03:56.175Z,99.90
2023-04-19T05:06:22.326Z,99.90
2023-04-19T05:08:48.494Z,99.90
2023-04-19T05:11:14.877Z,99.90
2023-04-19T05:13:41.573Z,99.90
2023-04-19T05:16:07.926Z,99.90
2023-04-19T05:18:34.150Z,99.90
2023-04-19T05:21:00.588Z,99.90
2023-04-19T05:23:26.736Z,99.90
2023-04-19T05:25:52.914Z,99.90
2023-04-19T05:28:19.114Z,99.90
2023-04-19T05:30:45.377Z,99.90
2023-04-19T05:33:11.856Z,99.90
2023-04-19T05:35:38.021Z,99.90
2023-04-19T05:38:04.231Z,99.90
2023-04-19T05:40:30.909Z,99.90
2023-04-19T05:42:57.110Z,99.90
2023-04-19T05:45:25.326Z,99.90
2023-04-19T05:47:51.537Z,99.90
2023-04-19T05:50:19.791Z,99.90
2023-04-19T05:52:45.975Z,99.90
2023-04-19T05:55:12.558Z,99.90
2023-04-19T05:57:38.833Z,99.90
2023-04-19T06:00:08.166Z,99.90
2023-04-19T06:02:34.523Z,99.90
2023-04-19T06:05:09.522Z,99.90
2023-04-19T06:07:42.891Z,99.90
2023-04-19T06:10:13.452Z,99.90
2023-04-19T06:12:39.946Z,99.90
2023-04-19T06:15:07.314Z,99.90
2023-04-19T06:17:33.508Z,99.90
2023-04-19T06:19:59.684Z,99.90
2023-04-19T06:22:26.106Z,99.90
2023-04-19T06:24:52.306Z,99.90
2023-04-19T06:27:18.526Z,99.90
2023-04-19T06:29:44.845Z,99.90
2023-04-19T06:32:11.088Z,99.90
2023-04-19T06:34:37.451Z,99.90
2023-04-19T06:37:03.820Z,99.90
2023-04-19T06:39:30.074Z,99.90
2023-04-19T06:41:56.402Z,99.90
2023-04-19T06:44:22.641Z,99.90
2023-04-19T06:46:48.831Z,99.90
2023-04-19T06:49:14.963Z,99.90
2023-04-19T06:51:41.108Z,99.90
2023-04-19T06:54:07.307Z,99.90
2023-04-19T06:56:45.284Z,99.90
2023-04-19T06:59:12.739Z,99.90
2023-04-19T07:01:39.894Z,99.90
2023-04-19T07:04:07.193Z,99.90
2023-04-19T07:06:37.110Z,99.90
2023-04-19T07:09:03.742Z,99.90
2023-04-19T07:11:30.322Z,99.90
2023-04-19T07:13:56.626Z,99.90
2023-04-19T07:16:22.923Z,99.90
2023-04-19T07:18:49.603Z,99.90
2023-04-19T07:21:15.796Z,99.90
2023-04-19T07:23:42.305Z,99.90
2023-04-19T07:26:08.732Z,99.90
2023-04-19T07:28:35.072Z,99.90
2023-04-19T07:31:01.309Z,99.90
2023-04-19T07:33:28.289Z,99.90
2023-04-19T07:35:55.883Z,99.70
2023-04-19T07:38:22.357Z,99.90
2023-04-19T07:40:49.293Z,99.90
2023-04-19T07:43:16.061Z,99.90
2023-04-19T07:45:42.346Z,99.90
2023-04-19T07:48:08.770Z,99.40
2023-04-19T07:50:35.026Z,99.90
2023-04-19T07:53:01.251Z,99.90
2023-04-19T07:55:27.521Z,99.90
2023-04-19T07:57:53.721Z,99.90
2023-04-19T08:00:23.144Z,99.90
2023-04-19T08:02:49.572Z,99.90
2023-04-19T08:05:19.308Z,99.90
2023-04-19T08:07:45.610Z,99.50
2023-04-19T08:10:12.428Z,99.60
2023-04-19T08:12:45.003Z,99.10
2023-04-19T08:17:46.706Z,98.60
2023-04-19T08:20:13.896Z,99.90
2023-04-19T08:22:40.270Z,99.80
2023-04-19T08:25:07.817Z,99.90
2023-04-19T08:27:34.769Z,99.80
2023-04-19T08:30:00.982Z,99.90
2023-04-19T08:32:27.388Z,99.90
2023-04-19T08:34:54.228Z,99.90
2023-04-19T08:37:20.683Z,99.90
2023-04-19T08:39:47.244Z,99.90
2023-04-19T08:45:05.697Z,99.90
2023-04-19T08:50:24.160Z,99.90
2023-04-19T08:52:59.074Z,99.80
2023-04-19T08:55:32.003Z,99.40
2023-04-19T08:57:58.257Z,99.20
2023-04-19T09:00:24.772Z,99.80
2023-04-19T09:02:52.175Z,99.20
2023-04-19T09:05:18.819Z,99.50
2023-04-19T09:07:45.864Z,99.80
2023-04-19T09:10:13.821Z,98.20
2023-04-19T09:12:40.457Z,98.20
2023-04-19T09:15:09.906Z,98.00
2023-04-19T09:17:36.948Z,98.10
2023-04-19T09:20:04.092Z,98.70
2023-04-19T09:22:31.263Z,98.20
2023-04-19T09:27:32.102Z,98.80
2023-04-19T09:29:59.795Z,99.70
2023-04-19T09:32:26.287Z,99.20
2023-04-19T09:34:53.908Z,99.90
2023-04-19T09:37:39.089Z,99.80
2023-04-19T09:40:24.245Z,99.90
2023-04-19T09:48:01.707Z,99.80
2023-04-19T09:50:28.780Z,99.40
2023-04-19T09:52:55.329Z,99.90
2023-04-19T09:57:51.848Z,99.40
2023-04-19T10:00:20.982Z,99.80
2023-04-19T10:02:53.973Z,99.70
2023-04-19T10:05:21.991Z,99.90
2023-04-19T10:07:48.868Z,99.30
2023-04-19T10:10:20.906Z,99.80
2023-04-19T10:15:21.215Z,99.90
2023-04-19T10:17:47.718Z,99.90
2023-04-19T10:20:22.748Z,99.30
2023-04-19T10:22:49.170Z,99.10
2023-04-19T10:25:16.181Z,99.90
2023-04-19T10:27:47.994Z,99.50
2023-04-19T10:30:21.698Z,99.30
2023-04-19T10:32:58.644Z,98.90
2023-04-19T10:35:35.231Z,98.90
2023-04-19T10:38:12.312Z,99.70
2023-04-19T10:40:59.903Z,99.90
2023-04-19T10:43:27.626Z,99.80
2023-04-19T10:45:54.120Z,99.80
2023-04-19T10:48:57.448Z,99.90
2023-04-19T10:51:36.269Z,99.90
2023-04-19T10:54:03.570Z,99.90
2023-04-19T10:57:12.133Z,99.90
2023-04-19T10:59:39.952Z,99.90
2023-04-19T11:02:27.570Z,99.90
2023-04-19T11:05:03.186Z,99.90
2023-04-19T11:07:36.710Z,99.90
2023-04-19T11:10:03.069Z,99.90
2023-04-19T11:12:29.380Z,99.90
2023-04-19T11:14:57.343Z,99.90
2023-04-19T11:17:28.432Z,99.90
2023-04-19T11:20:08.712Z,99.90
2023-04-19T11:22:39.539Z,99.90
2023-04-19T11:25:13.490Z,99.90
2023-04-19T11:27:41.188Z,99.90
2023-04-19T11:30:09.070Z,99.90
2023-04-19T11:32:35.618Z,99.90
2023-04-19T11:35:07.492Z,99.90
2023-04-19T11:37:36.222Z,99.90
2023-04-19T11:40:05.040Z,99.90
2023-04-19T11:42:32.034Z,99.90
2023-04-19T11:44:59.208Z,99.90
2023-04-19T11:47:28.530Z,99.90
2023-04-19T11:49:58.392Z,99.90
2023-04-19T11:52:25.379Z,99.90
2023-04-19T11:54:52.398Z,99.90
2023-04-19T11:57:30.984Z,99.90
2023-04-19T12:00:11.328Z,99.90
2023-04-19T12:02:44.257Z,99.90
2023-04-19T12:05:14.933Z,99.90
2023-04-19T12:08:08.681Z,99.90
2023-04-19T12:10:35.400Z,99.90
2023-04-19T12:13:15.656Z,99.90
2023-04-19T12:15:45.462Z,99.90
2023-04-19T12:18:12.110Z,99.90
2023-04-19T12:20:42.604Z,99.90
2023-04-19T12:23:10.572Z,99.90
2023-04-19T12:25:36.872Z,99.90
2023-04-19T12:28:03.537Z,99.90
2023-04-19T12:30:29.788Z,99.90
2023-04-19T12:32:56.021Z,99.90
2023-04-19T12:35:23.285Z,99.90
2023-04-19T12:37:52.118Z,99.90
2023-04-19T12:40:18.904Z,99.90
2023-04-19T12:42:46.026Z,99.90
2023-04-19T12:45:12.507Z,99.90
2023-04-19T12:47:39.439Z,99.90
2023-04-19T12:50:07.020Z,99.90
2023-04-19T12:52:33.521Z,99.90
2023-04-19T12:55:00.795Z,99.90
2023-04-19T12:57:27.256Z,99.90
2023-04-19T12:59:53.481Z,99.90
2023-04-19T13:02:20.408Z,99.90
2023-04-19T13:04:47.327Z,99.90
2023-04-19T13:07:14.637Z,99.90
2023-04-19T13:09:41.161Z,99.90
2023-04-19T13:12:07.574Z,99.90
2023-04-19T13:14:33.862Z,99.90
2023-04-19T13:17:00.298Z,99.90
2023-04-19T13:19:26.616Z,99.90
2023-04-19T13:21:52.839Z,99.90
2023-04-19T13:24:19.345Z,99.90
2023-04-19T13:26:45.811Z,99.90
2023-04-19T13:29:12.335Z,99.90
2023-04-19T13:31:38.615Z,99.90
2023-04-19T13:34:04.954Z,99.90
2023-04-19T13:36:31.613Z,99.90
2023-04-19T13:38:57.969Z,99.90
2023-04-19T13:41:24.216Z,99.90
2023-04-19T13:43:50.612Z,99.90
2023-04-19T13:46:16.895Z,99.90
2023-04-19T13:48:43.053Z,99.90
2023-04-19T13:51:09.977Z,99.90
2023-04-19T13:53:36.268Z,99.90
2023-04-19T13:56:02.644Z,99.90
2023-04-19T13:58:28.936Z,99.90
2023-04-19T14:00:55.146Z,99.90
2023-04-19T14:03:22.064Z,99.90
2023-04-19T14:05:48.544Z,99.90
2023-04-19T14:08:14.679Z,99.90
2023-04-19T14:10:40.981Z,99.90
2023-04-19T14:13:07.263Z,99.90
2023-04-19T14:15:33.551Z,99.90
2023-04-19T14:18:00.150Z,99.90
2023-04-19T14:20:26.556Z,99.70
2023-04-19T14:22:54.579Z,99.90
2023-04-19T14:25:20.841Z,99.00
2023-04-19T14:27:47.027Z,98.70
2023-04-19T14:30:13.496Z,99.30
2023-04-19T14:32:39.825Z,99.50
2023-04-19T14:35:07.809Z,99.50
2023-04-19T14:37:34.034Z,99.90
2023-04-19T14:40:00.362Z,99.60
2023-04-19T14:42:26.677Z,99.90
2023-04-19T14:44:53.080Z,98.50
2023-04-19T14:47:20.328Z,99.10
2023-04-19T14:49:46.632Z,99.00
2023-04-19T14:52:12.837Z,98.60
2023-04-19T14:54:39.115Z,98.70
2023-04-19T14:57:05.512Z,98.20
2023-04-19T14:59:31.708Z,98.50
2023-04-19T15:01:58.055Z,97.90
2023-04-19T15:04:24.645Z,99.00
2023-04-19T15:06:51.113Z,99.30
2023-04-19T15:09:17.877Z,98.80
2023-04-19T15:11:44.470Z,99.10
2023-04-19T15:14:10.875Z,98.80
2023-04-19T15:16:38.476Z,98.40
2023-04-19T15:19:06.844Z,99.30
2023-04-19T15:21:33.729Z,99.50
2023-04-19T15:24:00.742Z,99.40
2023-04-19T15:26:26.954Z,98.80
2023-04-19T15:28:54.371Z,98.80
2023-04-19T15:31:20.997Z,99.90
2023-04-19T15:33:47.381Z,99.40
2023-04-19T15:36:13.804Z,99.70
2023-04-19T15:38:40.426Z,98.60
2023-04-19T15:41:07.776Z,98.90
2023-04-19T15:43:34.724Z,98.30
2023-04-19T15:46:01.190Z,98.30
2023-04-19T15:48:27.803Z,98.90
2023-04-19T15:50:54.135Z,98.90
2023-04-19T15:53:20.766Z,98.20
2023-04-19T15:55:47.628Z,98.60
2023-04-19T15:58:14.615Z,99.00
2023-04-19T16:00:40.825Z,99.10
2023-04-19T16:03:09.178Z,99.90
2023-04-19T16:05:35.601Z,99.20
2023-04-19T16:08:08.874Z,99.60
2023-04-19T16:10:35.624Z,99.50
2023-04-19T16:13:03.360Z,99.10
2023-04-19T16:15:29.745Z,99.30
2023-04-19T16:17:59.116Z,99.30
2023-04-19T16:20:25.512Z,99.90
2023-04-19T16:22:51.842Z,99.90
2023-04-19T16:25:18.739Z,99.90
2023-04-19T16:27:45.506Z,99.70
2023-04-19T16:30:12.091Z,99.90
2023-04-19T16:32:42.155Z,99.90
2023-04-19T16:35:09.107Z,99.90
2023-04-19T16:37:35.437Z,99.90
2023-04-19T16:40:08.556Z,99.90
2023-04-19T16:42:35.207Z,99.90
2023-04-19T16:45:01.444Z,99.90
2023-04-19T16:47:29.569Z,99.80
2023-04-19T16:49:56.774Z,99.90
2023-04-19T16:52:24.585Z,99.90
2023-04-19T16:54:50.983Z,99.90
2023-04-19T16:57:17.279Z,99.90
2023-04-19T16:59:43.482Z,99.90
2023-04-19T17:02:10.518Z,99.60
2023-04-19T17:04:37.222Z,99.90
2023-04-19T17:07:03.642Z,99.90
2023-04-19T17:09:29.986Z,99.90
2023-04-19T17:11:56.872Z,99.90
2023-04-19T17:14:23.612Z,99.90
2023-04-19T17:16:51.224Z,99.90
2023-04-19T17:19:18.056Z,99.80
2023-04-19T17:21:44.778Z,99.90
2023-04-19T17:24:11.516Z,99.90
2023-04-19T17:26:37.757Z,99.90
2023-04-19T17:29:11.734Z,99.90
2023-04-19T17:31:38.072Z,99.90
2023-04-19T17:34:04.794Z,99.90
2023-04-19T17:36:31.488Z,99.90
2023-04-19T17:39:00.267Z,99.90
2023-04-19T17:41:28.237Z,99.90
2023-04-19T17:43:56.649Z,99.90
2023-04-19T17:46:25.676Z,99.90
2023-04-19T17:48:53.033Z,99.90
2023-04-19T17:51:19.448Z,99.90
2023-04-19T17:53:46.604Z,99.90
2023-04-19T17:56:12.866Z,99.90
2023-04-19T17:58:40.521Z,99.90
2023-04-19T18:01:08.345Z,99.90
2023-04-19T18:03:35.356Z,99.90
2023-04-19T18:06:01.806Z,99.90
2023-04-19T18:08:28.899Z,99.90
2023-04-19T18:10:55.209Z,99.90
2023-04-19T18:13:22.042Z,99.90
2023-04-19T18:15:48.439Z,99.90
2023-04-19T18:18:15.380Z,99.90
2023-04-19T18:20:43.640Z,99.90
2023-04-19T18:23:09.842Z,99.90
2023-04-19T18:25:37.014Z,99.90
2023-04-19T18:28:04.097Z,99.90
2023-04-19T18:30:30.670Z,99.90
2023-04-19T18:32:58.297Z,99.90
2023-04-19T18:35:25.302Z,99.90
2023-04-19T18:37:51.656Z,99.90
2023-04-19T18:40:18.575Z,99.90
2023-04-19T18:42:45.412Z,99.90
2023-04-19T18:45:12.107Z,99.90
2023-04-19T18:47:38.850Z,99.90
2023-04-19T18:50:07.875Z,99.90
2023-04-19T18:52:35.635Z,99.90
2023-04-19T18:55:03.207Z,99.90
2023-04-19T18:57:34.177Z,99.90
2023-04-19T19:00:03.075Z,99.90
2023-04-19T19:02:30.455Z,99.90
2023-04-19T19:05:01.191Z,99.90
2023-04-19T19:10:03.603Z,99.90
2023-04-19T19:12:32.704Z,99.90
2023-04-19T19:14:59.400Z,99.90
2023-04-19T19:17:28.209Z,99.90
2023-04-19T19:19:55.963Z,99.90
2023-04-19T19:22:27.584Z,99.90
2023-04-19T19:24:54.924Z,99.90
2023-04-19T19:27:21.682Z,99.90
2023-04-19T19:29:48.260Z,99.90
2023-04-19T19:32:14.915Z,99.90
2023-04-19T19:34:51.787Z,99.90
2023-04-19T19:37:21.864Z,99.90
2023-04-19T19:39:48.178Z,99.90
2023-04-19T19:42:18.102Z,99.90
2023-04-19T19:44:44.500Z,99.90
2023-04-19T19:47:11.768Z,99.90
2023-04-19T19:52:07.510Z,99.90
2023-04-19T19:54:33.895Z,99.90
2023-04-19T19:57:52.912Z,99.90
2023-04-19T20:00:46.939Z,99.90
2023-04-19T20:03:19.041Z,99.90
2023-04-19T20:05:57.042Z,99.90
2023-04-19T20:08:24.048Z,99.90
2023-04-19T20:10:51.061Z,99.90
2023-04-19T20:13:17.606Z,99.90
2023-04-19T20:15:46.558Z,99.90
2023-04-19T20:18:16.477Z,99.90
2023-04-19T20:20:43.313Z,99.90
2023-04-19T20:23:10.611Z,99.90
2023-04-19T20:25:39.672Z,99.90
2023-04-19T20:28:07.170Z,99.90
2023-04-19T20:30:33.740Z,99.90
2023-04-19T20:33:00.601Z,99.90
2023-04-19T20:35:27.323Z,99.90
2023-04-19T20:37:53.973Z,99.90
2023-04-19T20:40:22.210Z,99.90
2023-04-19T20:42:48.412Z,99.90
2023-04-19T20:45:14.762Z,99.90
2023-04-19T20:47:42.218Z,99.90
2023-04-19T20:50:08.697Z,99.90
2023-04-19T20:52:35.075Z,99.90
2023-04-19T20:55:01.254Z,99.90
2023-04-19T20:57:27.532Z,99.90
2023-04-19T20:59:53.744Z,99.90
2023-04-19T21:02:20.221Z,99.90
2023-04-19T21:04:47.346Z,99.90
2023-04-19T21:07:13.566Z,99.90
2023-04-19T21:09:40.315Z,99.90
2023-04-19T21:12:07.072Z,99.90
2023-04-19T21:14:33.486Z,99.90
2023-04-19T21:17:00.667Z,99.90
2023-04-19T21:19:26.861Z,99.90
2023-04-19T21:21:53.018Z,99.90
2023-04-19T21:24:19.719Z,99.90
2023-04-19T21:26:45.946Z,99.90
2023-04-19T21:29:12.295Z,99.90
2023-04-19T21:31:38.600Z,99.90
2023-04-19T21:34:04.957Z,99.90
2023-04-19T21:36:32.675Z,99.90
2023-04-19T21:38:59.044Z,99.90
2023-04-19T21:41:25.270Z,99.90
2023-04-19T21:43:51.596Z,99.90
2023-04-19T21:46:17.908Z,99.90
2023-04-19T21:48:44.206Z,99.90
2023-04-19T21:51:12.090Z,99.90
2023-04-19T21:53:38.270Z,99.90
2023-04-19T21:56:05.253Z,99.90
2023-04-19T21:58:31.435Z,99.90
2023-04-19T22:00:57.642Z,99.90
2023-04-19T22:03:23.970Z,99.90
2023-04-19T22:05:50.982Z,99.90
2023-04-19T22:08:17.365Z,99.90
2023-04-19T22:10:44.128Z,99.90
2023-04-19T22:13:10.324Z,99.90
2023-04-19T22:15:36.835Z,99.90
2023-04-19T22:18:04.038Z,99.90
2023-04-19T22:20:31.420Z,99.90
2023-04-19T22:22:57.709Z,99.90
2023-04-19T22:25:23.884Z,99.90
2023-04-19T22:27:50.349Z,99.90
2023-04-19T22:30:16.612Z,99.90
2023-04-19T22:32:42.883Z,99.90
2023-04-19T22:35:09.135Z,99.90
2023-04-19T22:37:35.345Z,99.90
2023-04-19T22:40:01.537Z,99.90
2023-04-19T22:42:27.678Z,99.90
2023-04-19T22:44:53.809Z,99.90
2023-04-19T22:47:20.482Z,99.90
2023-04-19T22:49:47.508Z,99.90
2023-04-19T22:52:13.735Z,99.90
2023-04-19T22:54:40.160Z,99.90
2023-04-19T22:57:06.393Z,99.90
2023-04-19T22:59:32.532Z,99.90
2023-04-19T23:01:58.787Z,99.90
2023-04-19T23:04:25.144Z,99.90
2023-04-19T23:06:51.829Z,99.90
2023-04-19T23:09:18.347Z,99.90
2023-04-19T23:11:46.900Z,99.90
2023-04-19T23:14:13.304Z,99.90
2023-04-19T23:16:39.762Z,99.90
2023-04-19T23:19:06.862Z,99.90
2023-04-19T23:21:33.577Z,99.90
2023-04-19T23:23:59.761Z,99.90
2023-04-19T23:26:25.873Z,99.90
2023-04-19T23:28:52.094Z,99.90
2023-04-19T23:31:18.327Z,99.90
2023-04-19T23:33:44.815Z,99.90
2023-04-19T23:36:11.097Z,99.90
2023-04-19T23:38:37.285Z,99.90
2023-04-19T23:41:03.569Z,99.90
2023-04-19T23:43:29.946Z,99.90
2023-04-19T23:45:56.118Z,99.90
2023-04-19T23:48:22.607Z,99.90
2023-04-19T23:50:48.746Z,99.90
2023-04-19T23:53:15.065Z,99.90
2023-04-19T23:55:41.264Z,99.90
2023-04-19T23:58:07.501Z,99.90
